sensor_id;sensor_type;location;lat;lon;timestamp;temperature;humidity
11666;DHT22;5889;51.350;6.708;2022-11-02T00:01:53;13.90;99.90
11666;DHT22;5889;51.350;6.708;2022-11-02T00:04:20;13.80;99.90
11666;DHT22;5889;51.350;6.708;2022-11-02T00:06:48;13.80;99.90
11666;DHT22;5889;51.350;6.708;2022-11-02T00:09:15;13.90;99.90
11666;DHT22;5889;51.350;6.708;2022-11-02T00:11:43;13.90;99.90
11666;DHT22;5889;51.350;6.708;2022-11-02T00:14:10;13.90;99.90
11666;DHT22;5889;51.350;6.708;2022-11-02T00:16:38;13.80;99.90
11666;DHT22;5889;51.350;6.708;2022-11-02T00:19:06;13.80;99.90
11666;DHT22;5889;51.350;6.708;2022-11-02T00:21:34;13.80;99.90
11666;DHT22;5889;51.350;6.708;2022-11-02T00:24:05;13.80;99.90
11666;DHT22;5889;51.350;6.708;2022-11-02T00:26:33;13.70;99.90
11666;DHT22;5889;51.350;6.708;2022-11-02T00:29:01;13.70;99.90
11666;DHT22;5889;51.350;6.708;2022-11-02T00:31:28;13.70;99.90
11666;DHT22;5889;51.350;6.708;2022-11-02T00:33:55;13.70;99.90
11666;DHT22;5889;51.350;6.708;2022-11-02T00:36:22;13.80;99.90
11666;DHT22;5889;51.350;6.708;2022-11-02T00:38:50;13.80;99.90
11666;DHT22;5889;51.350;6.708;2022-11-02T00:41:19;13.80;99.90
11666;DHT22;5889;51.350;6.708;2022-11-02T00:43:46;13.80;99.90
11666;DHT22;5889;51.350;6.708;2022-11-02T00:46:13;13.80;99.90
11666;DHT22;5889;51.350;6.708;2022-11-02T00:48:40;13.80;99.90
11666;DHT22;5889;51.350;6.708;2022-11-02T00:51:07;13.80;99.90
11666;DHT22;5889;51.350;6.708;2022-11-02T00:53:34;13.80;99.90
11666;DHT22;5889;51.350;6.708;2022-11-02T00:56:01;13.80;99.90
11666;DHT22;5889;51.350;6.708;2022-11-02T00:58:29;13.90;99.90
11666;DHT22;5889;51.350;6.708;2022-11-02T01:00:56;13.90;99.90
11666;DHT22;5889;51.350;6.708;2022-11-02T01:03:23;13.90;99.90
11666;DHT22;5889;51.350;6.708;2022-11-02T01:05:50;13.90;99.90
11666;DHT22;5889;51.350;6.708;2022-11-02T01:08:17;14.00;99.90
11666;DHT22;5889;51.350;6.708;2022-11-02T01:10:44;14.00;99.90
11666;DHT22;5889;51.350;6.708;2022-11-02T01:13:11;14.00;99.90
11666;DHT22;5889;51.350;6.708;2022-11-02T01:15:39;14.00;99.90
11666;DHT22;5889;51.350;6.708;2022-11-02T01:18:08;14.00;99.90
11666;DHT22;5889;51.350;6.708;2022-11-02T01:20:34;13.90;99.90
11666;DHT22;5889;51.350;6.708;2022-11-02T01:23:01;13.90;99.90
11666;DHT22;5889;51.350;6.708;2022-11-02T01:25:28;13.90;99.90
11666;DHT22;5889;51.350;6.708;2022-11-02T01:27:55;13.90;99.90
11666;DHT22;5889;51.350;6.708;2022-11-02T01:30:22;13.80;99.90
11666;DHT22;5889;51.350;6.708;2022-11-02T01:32:50;13.80;99.90
11666;DHT22;5889;51.350;6.708;2022-11-02T01:35:17;13.80;99.90
11666;DHT22;5889;51.350;6.708;2022-11-02T01:37:44;13.80;99.90
11666;DHT22;5889;51.350;6.708;2022-11-02T01:40:11;13.70;99.90
11666;DHT22;5889;51.350;6.708;2022-11-02T01:42:38;13.70;99.90
11666;DHT22;5889;51.350;6.708;2022-11-02T01:45:06;13.80;99.90
11666;DHT22;5889;51.350;6.708;2022-11-02T01:47:36;13.80;99.90
11666;DHT22;5889;51.350;6.708;2022-11-02T01:50:07;13.80;99.90
11666;DHT22;5889;51.350;6.708;2022-11-02T01:52:37;13.90;99.90
11666;DHT22;5889;51.350;6.708;2022-11-02T01:55:09;13.90;99.90
11666;DHT22;5889;51.350;6.708;2022-11-02T01:57:39;13.90;99.90
11666;DHT22;5889;51.350;6.708;2022-11-02T02:00:09;13.90;99.90
11666;DHT22;5889;51.350;6.708;2022-11-02T02:02:41;13.80;99.90
11666;DHT22;5889;51.350;6.708;2022-11-02T02:05:12;13.70;99.90
11666;DHT22;5889;51.350;6.708;2022-11-02T02:07:40;13.70;99.90
11666;DHT22;5889;51.350;6.708;2022-11-02T02:10:08;13.70;99.90
11666;DHT22;5889;51.350;6.708;2022-11-02T02:12:37;13.70;99.90
11666;DHT22;5889;51.350;6.708;2022-11-02T02:15:06;13.60;99.90
11666;DHT22;5889;51.350;6.708;2022-11-02T02:17:41;13.60;99.90
11666;DHT22;5889;51.350;6.708;2022-11-02T02:20:17;13.60;99.90
11666;DHT22;5889;51.350;6.708;2022-11-02T02:23:11;13.60;99.90
11666;DHT22;5889;51.350;6.708;2022-11-02T02:26:31;13.60;99.90
11666;DHT22;5889;51.350;6.708;2022-11-02T02:29:08;13.60;99.90
11666;DHT22;5889;51.350;6.708;2022-11-02T02:31:41;13.50;99.90
11666;DHT22;5889;51.350;6.708;2022-11-02T02:34:16;13.50;99.90
11666;DHT22;5889;51.350;6.708;2022-11-02T02:36:48;13.60;99.90
11666;DHT22;5889;51.350;6.708;2022-11-02T02:39:21;13.60;99.90
11666;DHT22;5889;51.350;6.708;2022-11-02T02:41:54;13.60;99.90
11666;DHT22;5889;51.350;6.708;2022-11-02T02:44:27;13.60;99.90
11666;DHT22;5889;51.350;6.708;2022-11-02T02:46:57;13.70;99.90
11666;DHT22;5889;51.350;6.708;2022-11-02T02:49:28;13.70;99.90
11666;DHT22;5889;51.350;6.708;2022-11-02T02:51:58;13.70;99.90
11666;DHT22;5889;51.350;6.708;2022-11-02T02:54:30;13.70;99.90
11666;DHT22;5889;51.350;6.708;2022-11-02T02:57:04;13.70;99.90
11666;DHT22;5889;51.350;6.708;2022-11-02T02:59:37;13.70;99.90
11666;DHT22;5889;51.350;6.708;2022-11-02T03:02:06;13.70;99.90
11666;DHT22;5889;51.350;6.708;2022-11-02T03:04:35;13.60;99.90
11666;DHT22;5889;51.350;6.708;2022-11-02T03:07:02;13.60;99.90
11666;DHT22;5889;51.350;6.708;2022-11-02T03:09:35;13.60;99.90
11666;DHT22;5889;51.350;6.708;2022-11-02T03:12:15;13.60;99.90
11666;DHT22;5889;51.350;6.708;2022-11-02T03:15:00;13.50;99.90
11666;DHT22;5889;51.350;6.708;2022-11-02T03:17:31;13.50;99.90
11666;DHT22;5889;51.350;6.708;2022-11-02T03:20:06;13.40;99.90
11666;DHT22;5889;51.350;6.708;2022-11-02T03:22:43;13.40;99.90
11666;DHT22;5889;51.350;6.708;2022-11-02T03:25:16;13.40;99.90
11666;DHT22;5889;51.350;6.708;2022-11-02T03:27:52;13.40;99.90
11666;DHT22;5889;51.350;6.708;2022-11-02T03:30:24;13.30;99.90
11666;DHT22;5889;51.350;6.708;2022-11-02T03:32:55;13.30;99.90
11666;DHT22;5889;51.350;6.708;2022-11-02T03:35:31;13.30;99.90
11666;DHT22;5889;51.350;6.708;2022-11-02T03:38:01;13.30;99.90
11666;DHT22;5889;51.350;6.708;2022-11-02T03:40:33;13.30;99.90
11666;DHT22;5889;51.350;6.708;2022-11-02T03:43:03;13.30;99.90
11666;DHT22;5889;51.350;6.708;2022-11-02T03:45:35;13.20;99.90
11666;DHT22;5889;51.350;6.708;2022-11-02T03:48:06;13.30;99.90
11666;DHT22;5889;51.350;6.708;2022-11-02T03:50:37;13.20;99.90
11666;DHT22;5889;51.350;6.708;2022-11-02T03:53:08;13.20;99.90
11666;DHT22;5889;51.350;6.708;2022-11-02T03:55:39;13.20;99.90
11666;DHT22;5889;51.350;6.708;2022-11-02T03:58:09;13.20;99.90
11666;DHT22;5889;51.350;6.708;2022-11-02T04:00:46;13.10;99.90
11666;DHT22;5889;51.350;6.708;2022-11-02T04:03:13;13.10;99.90
11666;DHT22;5889;51.350;6.708;2022-11-02T04:05:40;13.10;99.90
11666;DHT22;5889;51.350;6.708;2022-11-02T04:08:08;13.10;99.90
11666;DHT22;5889;51.350;6.708;2022-11-02T04:10:50;13.10;99.90
11666;DHT22;5889;51.350;6.708;2022-11-02T04:13:35;13.10;99.90
11666;DHT22;5889;51.350;6.708;2022-11-02T04:16:21;13.00;99.90
11666;DHT22;5889;51.350;6.708;2022-11-02T04:18:48;13.10;99.90
11666;DHT22;5889;51.350;6.708;2022-11-02T04:21:32;13.00;99.90
11666;DHT22;5889;51.350;6.708;2022-11-02T04:23:59;13.00;99.90
11666;DHT22;5889;51.350;6.708;2022-11-02T04:26:43;13.00;99.90
11666;DHT22;5889;51.350;6.708;2022-11-02T04:29:10;13.00;99.90
11666;DHT22;5889;51.350;6.708;2022-11-02T04:31:38;13.00;99.90
11666;DHT22;5889;51.350;6.708;2022-11-02T04:34:05;13.00;99.90
11666;DHT22;5889;51.350;6.708;2022-11-02T04:36:31;13.00;99.90
11666;DHT22;5889;51.350;6.708;2022-11-02T04:38:58;13.00;99.90
11666;DHT22;5889;51.350;6.708;2022-11-02T04:41:24;12.90;99.90
11666;DHT22;5889;51.350;6.708;2022-11-02T04:44:11;12.90;99.90
11666;DHT22;5889;51.350;6.708;2022-11-02T04:46:41;12.90;99.90
11666;DHT22;5889;51.350;6.708;2022-11-02T04:49:09;12.90;99.90
11666;DHT22;5889;51.350;6.708;2022-11-02T04:51:37;12.90;99.90
11666;DHT22;5889;51.350;6.708;2022-11-02T04:54:05;12.90;99.90
11666;DHT22;5889;51.350;6.708;2022-11-02T04:56:32;12.90;99.90
11666;DHT22;5889;51.350;6.708;2022-11-02T04:58:59;12.90;99.90
11666;DHT22;5889;51.350;6.708;2022-11-02T05:01:28;12.90;99.90
11666;DHT22;5889;51.350;6.708;2022-11-02T05:03:56;12.90;99.90
11666;DHT22;5889;51.350;6.708;2022-11-02T05:06:24;12.90;99.90
11666;DHT22;5889;51.350;6.708;2022-11-02T05:08:51;12.90;99.90
11666;DHT22;5889;51.350;6.708;2022-11-02T05:11:18;12.90;99.90
11666;DHT22;5889;51.350;6.708;2022-11-02T05:13:45;12.90;99.90
11666;DHT22;5889;51.350;6.708;2022-11-02T05:16:13;12.90;99.90
11666;DHT22;5889;51.350;6.708;2022-11-02T05:18:41;13.00;99.90
11666;DHT22;5889;51.350;6.708;2022-11-02T05:21:10;12.90;99.90
11666;DHT22;5889;51.350;6.708;2022-11-02T05:23:38;13.00;99.90
11666;DHT22;5889;51.350;6.708;2022-11-02T05:26:08;12.90;99.90
11666;DHT22;5889;51.350;6.708;2022-11-02T05:28:35;12.90;99.90
11666;DHT22;5889;51.350;6.708;2022-11-02T05:31:02;12.80;99.90
11666;DHT22;5889;51.350;6.708;2022-11-02T05:33:30;12.80;99.90
11666;DHT22;5889;51.350;6.708;2022-11-02T05:35:58;12.80;99.90
11666;DHT22;5889;51.350;6.708;2022-11-02T05:38:27;12.80;99.90
11666;DHT22;5889;51.350;6.708;2022-11-02T05:40:55;12.70;99.90
11666;DHT22;5889;51.350;6.708;2022-11-02T05:43:23;12.70;99.90
11666;DHT22;5889;51.350;6.708;2022-11-02T05:45:51;12.70;99.90
11666;DHT22;5889;51.350;6.708;2022-11-02T05:48:19;12.70;99.90
11666;DHT22;5889;51.350;6.708;2022-11-02T05:50:46;12.60;99.90
11666;DHT22;5889;51.350;6.708;2022-11-02T05:53:13;12.60;99.90
11666;DHT22;5889;51.350;6.708;2022-11-02T05:55:42;12.60;99.90
11666;DHT22;5889;51.350;6.708;2022-11-02T05:58:08;12.60;99.90
11666;DHT22;5889;51.350;6.708;2022-11-02T06:00:35;12.50;99.90
11666;DHT22;5889;51.350;6.708;2022-11-02T06:03:02;12.50;99.90
11666;DHT22;5889;51.350;6.708;2022-11-02T06:05:29;12.50;99.90
11666;DHT22;5889;51.350;6.708;2022-11-02T06:07:57;12.40;99.90
11666;DHT22;5889;51.350;6.708;2022-11-02T06:10:25;12.40;99.90
11666;DHT22;5889;51.350;6.708;2022-11-02T06:12:58;12.40;99.90
11666;DHT22;5889;51.350;6.708;2022-11-02T06:15:26;12.40;99.90
11666;DHT22;5889;51.350;6.708;2022-11-02T06:17:53;12.40;99.90
11666;DHT22;5889;51.350;6.708;2022-11-02T06:20:21;12.30;99.90
11666;DHT22;5889;51.350;6.708;2022-11-02T06:22:48;12.30;99.90
11666;DHT22;5889;51.350;6.708;2022-11-02T06:25:15;12.30;99.90
11666;DHT22;5889;51.350;6.708;2022-11-02T06:27:49;12.30;99.90
11666;DHT22;5889;51.350;6.708;2022-11-02T06:30:19;12.30;99.90
11666;DHT22;5889;51.350;6.708;2022-11-02T06:32:46;12.30;99.90
11666;DHT22;5889;51.350;6.708;2022-11-02T06:35:14;12.30;99.90
11666;DHT22;5889;51.350;6.708;2022-11-02T06:37:42;12.30;99.90
11666;DHT22;5889;51.350;6.708;2022-11-02T06:40:10;12.30;99.90
11666;DHT22;5889;51.350;6.708;2022-11-02T06:42:37;12.30;99.90
11666;DHT22;5889;51.350;6.708;2022-11-02T06:45:05;12.40;99.90
11666;DHT22;5889;51.350;6.708;2022-11-02T06:47:35;12.40;99.90
11666;DHT22;5889;51.350;6.708;2022-11-02T06:50:05;12.40;99.90
11666;DHT22;5889;51.350;6.708;2022-11-02T06:52:33;12.50;99.90
11666;DHT22;5889;51.350;6.708;2022-11-02T06:55:00;12.50;99.90
11666;DHT22;5889;51.350;6.708;2022-11-02T06:57:27;12.50;99.90
11666;DHT22;5889;51.350;6.708;2022-11-02T06:59:54;12.50;99.90
11666;DHT22;5889;51.350;6.708;2022-11-02T07:02:28;12.60;99.90
11666;DHT22;5889;51.350;6.708;2022-11-02T07:04:56;12.60;99.90
11666;DHT22;5889;51.350;6.708;2022-11-02T07:07:23;12.60;99.90
11666;DHT22;5889;51.350;6.708;2022-11-02T07:09:50;12.60;99.90
11666;DHT22;5889;51.350;6.708;2022-11-02T07:12:17;12.60;99.90
11666;DHT22;5889;51.350;6.708;2022-11-02T07:14:44;12.70;99.90
11666;DHT22;5889;51.350;6.708;2022-11-02T07:17:11;12.70;99.90
11666;DHT22;5889;51.350;6.708;2022-11-02T07:19:38;12.70;99.90
11666;DHT22;5889;51.350;6.708;2022-11-02T07:22:07;12.70;99.90
11666;DHT22;5889;51.350;6.708;2022-11-02T07:24:34;12.70;99.90
11666;DHT22;5889;51.350;6.708;2022-11-02T07:27:00;12.70;99.90
11666;DHT22;5889;51.350;6.708;2022-11-02T07:29:27;12.70;99.90
11666;DHT22;5889;51.350;6.708;2022-11-02T07:31:54;12.70;99.90
11666;DHT22;5889;51.350;6.708;2022-11-02T07:34:21;12.70;99.90
11666;DHT22;5889;51.350;6.708;2022-11-02T07:36:48;12.70;99.90
11666;DHT22;5889;51.350;6.708;2022-11-02T07:39:16;12.70;99.90
11666;DHT22;5889;51.350;6.708;2022-11-02T07:41:43;12.80;99.90
11666;DHT22;5889;51.350;6.708;2022-11-02T07:44:10;12.70;99.90
11666;DHT22;5889;51.350;6.708;2022-11-02T07:46:37;12.70;99.90
11666;DHT22;5889;51.350;6.708;2022-11-02T07:49:04;12.70;99.90
11666;DHT22;5889;51.350;6.708;2022-11-02T07:51:31;12.80;99.90
11666;DHT22;5889;51.350;6.708;2022-11-02T07:53:58;12.80;99.90
11666;DHT22;5889;51.350;6.708;2022-11-02T07:56:27;12.80;99.90
11666;DHT22;5889;51.350;6.708;2022-11-02T07:58:54;12.80;99.90
11666;DHT22;5889;51.350;6.708;2022-11-02T08:01:21;12.90;99.90
11666;DHT22;5889;51.350;6.708;2022-11-02T08:03:48;12.90;99.90
11666;DHT22;5889;51.350;6.708;2022-11-02T08:06:15;13.00;99.90
11666;DHT22;5889;51.350;6.708;2022-11-02T08:08:42;13.00;99.90
11666;DHT22;5889;51.350;6.708;2022-11-02T08:11:09;13.10;99.90
11666;DHT22;5889;51.350;6.708;2022-11-02T08:13:37;13.10;99.90
11666;DHT22;5889;51.350;6.708;2022-11-02T08:16:04;13.20;99.90
11666;DHT22;5889;51.350;6.708;2022-11-02T08:18:31;13.20;99.90
11666;DHT22;5889;51.350;6.708;2022-11-02T08:20:58;13.20;99.90
11666;DHT22;5889;51.350;6.708;2022-11-02T08:23:26;13.30;99.90
11666;DHT22;5889;51.350;6.708;2022-11-02T08:25:53;13.30;99.90
11666;DHT22;5889;51.350;6.708;2022-11-02T08:28:23;13.40;99.90
11666;DHT22;5889;51.350;6.708;2022-11-02T08:30:51;13.40;99.90
11666;DHT22;5889;51.350;6.708;2022-11-02T08:33:19;13.40;99.90
11666;DHT22;5889;51.350;6.708;2022-11-02T08:35:47;13.50;99.90
11666;DHT22;5889;51.350;6.708;2022-11-02T08:38:14;13.50;99.90
11666;DHT22;5889;51.350;6.708;2022-11-02T08:40:42;13.60;99.90
11666;DHT22;5889;51.350;6.708;2022-11-02T08:43:11;13.60;99.90
11666;DHT22;5889;51.350;6.708;2022-11-02T08:45:40;13.60;99.90
11666;DHT22;5889;51.350;6.708;2022-11-02T08:48:09;13.70;99.90
11666;DHT22;5889;51.350;6.708;2022-11-02T08:50:36;13.80;99.90
11666;DHT22;5889;51.350;6.708;2022-11-02T08:53:04;13.90;99.90
11666;DHT22;5889;51.350;6.708;2022-11-02T08:55:31;13.90;99.90
11666;DHT22;5889;51.350;6.708;2022-11-02T08:57:59;13.90;99.90
11666;DHT22;5889;51.350;6.708;2022-11-02T09:00:28;13.90;99.90
11666;DHT22;5889;51.350;6.708;2022-11-02T09:02:59;13.90;99.90
11666;DHT22;5889;51.350;6.708;2022-11-02T09:05:30;14.00;99.90
11666;DHT22;5889;51.350;6.708;2022-11-02T09:07:59;14.10;99.90
11666;DHT22;5889;51.350;6.708;2022-11-02T09:10:26;14.10;99.90
11666;DHT22;5889;51.350;6.708;2022-11-02T09:12:53;14.10;99.90
11666;DHT22;5889;51.350;6.708;2022-11-02T09:15:20;14.10;99.90
11666;DHT22;5889;51.350;6.708;2022-11-02T09:17:48;14.10;99.90
11666;DHT22;5889;51.350;6.708;2022-11-02T09:20:16;14.10;99.90
11666;DHT22;5889;51.350;6.708;2022-11-02T09:22:45;14.20;99.90
11666;DHT22;5889;51.350;6.708;2022-11-02T09:25:12;14.20;99.90
11666;DHT22;5889;51.350;6.708;2022-11-02T09:27:40;14.40;99.90
11666;DHT22;5889;51.350;6.708;2022-11-02T09:30:07;14.40;99.90
11666;DHT22;5889;51.350;6.708;2022-11-02T09:32:36;14.40;99.90
11666;DHT22;5889;51.350;6.708;2022-11-02T09:35:05;14.50;99.90
11666;DHT22;5889;51.350;6.708;2022-11-02T09:37:33;14.50;99.90
11666;DHT22;5889;51.350;6.708;2022-11-02T09:40:01;14.60;99.90
11666;DHT22;5889;51.350;6.708;2022-11-02T09:42:31;14.70;99.90
11666;DHT22;5889;51.350;6.708;2022-11-02T09:45:04;14.80;99.90
11666;DHT22;5889;51.350;6.708;2022-11-02T09:47:37;14.70;99.90
11666;DHT22;5889;51.350;6.708;2022-11-02T09:50:14;14.70;99.90
11666;DHT22;5889;51.350;6.708;2022-11-02T09:52:45;14.70;99.90
11666;DHT22;5889;51.350;6.708;2022-11-02T09:55:20;14.70;99.90
11666;DHT22;5889;51.350;6.708;2022-11-02T09:57:56;14.60;99.90
11666;DHT22;5889;51.350;6.708;2022-11-02T10:00:26;14.70;99.90
11666;DHT22;5889;51.350;6.708;2022-11-02T10:02:59;14.90;99.90
11666;DHT22;5889;51.350;6.708;2022-11-02T10:05:34;14.90;99.90
11666;DHT22;5889;51.350;6.708;2022-11-02T10:08:21;15.00;99.90
11666;DHT22;5889;51.350;6.708;2022-11-02T10:11:01;15.00;99.90
11666;DHT22;5889;51.350;6.708;2022-11-02T10:13:35;15.00;99.90
11666;DHT22;5889;51.350;6.708;2022-11-02T10:16:06;14.80;99.90
11666;DHT22;5889;51.350;6.708;2022-11-02T10:18:36;14.80;99.90
11666;DHT22;5889;51.350;6.708;2022-11-02T10:21:07;14.90;99.90
11666;DHT22;5889;51.350;6.708;2022-11-02T10:23:39;14.80;99.90
11666;DHT22;5889;51.350;6.708;2022-11-02T10:26:15;14.90;99.90
11666;DHT22;5889;51.350;6.708;2022-11-02T10:28:47;14.90;99.90
11666;DHT22;5889;51.350;6.708;2022-11-02T10:31:22;14.90;99.50
11666;DHT22;5889;51.350;6.708;2022-11-02T10:33:50;14.80;99.40
11666;DHT22;5889;51.350;6.708;2022-11-02T10:36:39;14.80;99.60
11666;DHT22;5889;51.350;6.708;2022-11-02T10:39:19;14.90;99.50
11666;DHT22;5889;51.350;6.708;2022-11-02T10:42:10;15.10;99.00
11666;DHT22;5889;51.350;6.708;2022-11-02T10:44:58;15.10;98.50
11666;DHT22;5889;51.350;6.708;2022-11-02T10:47:35;15.10;98.50
11666;DHT22;5889;51.350;6.708;2022-11-02T10:50:19;15.00;98.50
11666;DHT22;5889;51.350;6.708;2022-11-02T10:52:49;15.00;98.60
11666;DHT22;5889;51.350;6.708;2022-11-02T10:55:23;15.10;98.70
11666;DHT22;5889;51.350;6.708;2022-11-02T10:57:54;15.10;98.90
11666;DHT22;5889;51.350;6.708;2022-11-02T11:00:27;15.10;99.20
11666;DHT22;5889;51.350;6.708;2022-11-02T11:03:08;15.20;99.80
11666;DHT22;5889;51.350;6.708;2022-11-02T11:05:38;15.20;98.30
11666;DHT22;5889;51.350;6.708;2022-11-02T11:08:28;15.20;98.00
11666;DHT22;5889;51.350;6.708;2022-11-02T11:11:12;15.20;98.60
11666;DHT22;5889;51.350;6.708;2022-11-02T11:13:42;15.20;98.10
11666;DHT22;5889;51.350;6.708;2022-11-02T11:16:11;15.30;98.10
11666;DHT22;5889;51.350;6.708;2022-11-02T11:18:39;15.40;98.10
11666;DHT22;5889;51.350;6.708;2022-11-02T11:21:06;15.40;98.40
11666;DHT22;5889;51.350;6.708;2022-11-02T11:23:33;15.40;98.20
11666;DHT22;5889;51.350;6.708;2022-11-02T11:26:01;15.50;98.10
11666;DHT22;5889;51.350;6.708;2022-11-02T11:28:31;15.50;97.90
11666;DHT22;5889;51.350;6.708;2022-11-02T11:31:08;15.50;97.60
11666;DHT22;5889;51.350;6.708;2022-11-02T11:33:50;15.50;97.80
11666;DHT22;5889;51.350;6.708;2022-11-02T11:36:23;15.60;97.60
11666;DHT22;5889;51.350;6.708;2022-11-02T11:38:52;15.60;97.50
11666;DHT22;5889;51.350;6.708;2022-11-02T11:41:20;15.60;97.60
11666;DHT22;5889;51.350;6.708;2022-11-02T11:43:48;15.60;97.60
11666;DHT22;5889;51.350;6.708;2022-11-02T11:46:18;15.60;97.70
11666;DHT22;5889;51.350;6.708;2022-11-02T11:48:48;15.70;97.70
11666;DHT22;5889;51.350;6.708;2022-11-02T11:51:27;15.70;97.80
11666;DHT22;5889;51.350;6.708;2022-11-02T11:54:18;15.60;97.60
11666;DHT22;5889;51.350;6.708;2022-11-02T11:56:47;15.60;97.60
11666;DHT22;5889;51.350;6.708;2022-11-02T11:59:27;15.60;97.70
11666;DHT22;5889;51.350;6.708;2022-11-02T12:01:57;15.60;97.80
11666;DHT22;5889;51.350;6.708;2022-11-02T12:04:30;15.60;97.70
11666;DHT22;5889;51.350;6.708;2022-11-02T12:09:48;15.60;97.60
11666;DHT22;5889;51.350;6.708;2022-11-02T12:12:27;15.60;97.50
11666;DHT22;5889;51.350;6.708;2022-11-02T12:15:09;15.50;97.60
11666;DHT22;5889;51.350;6.708;2022-11-02T12:17:51;15.50;97.50
11666;DHT22;5889;51.350;6.708;2022-11-02T12:20:35;15.40;98.30
11666;DHT22;5889;51.350;6.708;2022-11-02T12:23:15;15.40;98.50
11666;DHT22;5889;51.350;6.708;2022-11-02T12:25:50;15.50;98.00
11666;DHT22;5889;51.350;6.708;2022-11-02T12:28:27;15.50;98.00
11666;DHT22;5889;51.350;6.708;2022-11-02T12:31:02;15.50;98.30
11666;DHT22;5889;51.350;6.708;2022-11-02T12:33:45;15.60;98.20
11666;DHT22;5889;51.350;6.708;2022-11-02T12:36:33;15.80;98.00
11666;DHT22;5889;51.350;6.708;2022-11-02T12:39:07;15.80;97.70
11666;DHT22;5889;51.350;6.708;2022-11-02T12:41:45;15.80;97.50
11666;DHT22;5889;51.350;6.708;2022-11-02T12:47:26;15.90;97.60
11666;DHT22;5889;51.350;6.708;2022-11-02T12:50:06;15.90;97.90
11666;DHT22;5889;51.350;6.708;2022-11-02T12:52:47;15.90;98.10
11666;DHT22;5889;51.350;6.708;2022-11-02T12:55:17;15.90;98.10
11666;DHT22;5889;51.350;6.708;2022-11-02T12:57:45;15.70;98.30
11666;DHT22;5889;51.350;6.708;2022-11-02T13:00:18;15.60;98.20
11666;DHT22;5889;51.350;6.708;2022-11-02T13:02:53;15.60;98.40
11666;DHT22;5889;51.350;6.708;2022-11-02T13:05:26;15.50;98.40
11666;DHT22;5889;51.350;6.708;2022-11-02T13:08:01;15.50;98.70
11666;DHT22;5889;51.350;6.708;2022-11-02T13:10:32;15.40;98.50
11666;DHT22;5889;51.350;6.708;2022-11-02T13:13:03;15.50;98.70
11666;DHT22;5889;51.350;6.708;2022-11-02T13:15:32;15.70;98.90
11666;DHT22;5889;51.350;6.708;2022-11-02T13:18:05;15.80;98.60
11666;DHT22;5889;51.350;6.708;2022-11-02T13:20:40;15.90;98.60
11666;DHT22;5889;51.350;6.708;2022-11-02T13:23:16;15.90;98.40
11666;DHT22;5889;51.350;6.708;2022-11-02T13:25:48;16.00;98.60
11666;DHT22;5889;51.350;6.708;2022-11-02T13:28:25;16.10;98.40
11666;DHT22;5889;51.350;6.708;2022-11-02T13:30:56;16.00;98.20
11666;DHT22;5889;51.350;6.708;2022-11-02T13:33:25;16.00;98.20
11666;DHT22;5889;51.350;6.708;2022-11-02T13:35:54;16.00;98.00
11666;DHT22;5889;51.350;6.708;2022-11-02T13:38:27;15.90;98.30
11666;DHT22;5889;51.350;6.708;2022-11-02T13:41:08;15.90;98.50
11666;DHT22;5889;51.350;6.708;2022-11-02T13:46:50;15.70;98.40
11666;DHT22;5889;51.350;6.708;2022-11-02T13:49:25;15.70;98.40
11666;DHT22;5889;51.350;6.708;2022-11-02T13:51:58;15.70;98.60
11666;DHT22;5889;51.350;6.708;2022-11-02T13:54:30;15.80;98.70
11666;DHT22;5889;51.350;6.708;2022-11-02T13:57:00;15.80;98.70
11666;DHT22;5889;51.350;6.708;2022-11-02T13:59:29;15.80;98.60
11666;DHT22;5889;51.350;6.708;2022-11-02T14:01:58;15.80;98.60
11666;DHT22;5889;51.350;6.708;2022-11-02T14:04:27;15.80;98.70
11666;DHT22;5889;51.350;6.708;2022-11-02T14:07:04;15.80;98.70
11666;DHT22;5889;51.350;6.708;2022-11-02T14:09:35;15.80;98.70
11666;DHT22;5889;51.350;6.708;2022-11-02T14:12:24;15.90;98.50
11666;DHT22;5889;51.350;6.708;2022-11-02T14:18:15;15.90;98.10
11666;DHT22;5889;51.350;6.708;2022-11-02T14:20:51;15.80;98.10
11666;DHT22;5889;51.350;6.708;2022-11-02T14:23:38;15.80;98.10
11666;DHT22;5889;51.350;6.708;2022-11-02T14:26:31;15.70;98.00
11666;DHT22;5889;51.350;6.708;2022-11-02T14:29:00;15.70;98.20
11666;DHT22;5889;51.350;6.708;2022-11-02T14:34:33;15.50;98.30
11666;DHT22;5889;51.350;6.708;2022-11-02T14:37:32;15.50;98.50
11666;DHT22;5889;51.350;6.708;2022-11-02T14:40:09;15.40;98.60
11666;DHT22;5889;51.350;6.708;2022-11-02T14:42:59;15.40;98.80
11666;DHT22;5889;51.350;6.708;2022-11-02T14:45:37;15.30;98.90
11666;DHT22;5889;51.350;6.708;2022-11-02T14:48:14;15.30;98.90
11666;DHT22;5889;51.350;6.708;2022-11-02T14:50:43;15.40;98.70
11666;DHT22;5889;51.350;6.708;2022-11-02T14:53:24;15.40;98.80
11666;DHT22;5889;51.350;6.708;2022-11-02T14:55:55;15.40;98.90
11666;DHT22;5889;51.350;6.708;2022-11-02T14:58:25;15.40;98.70
11666;DHT22;5889;51.350;6.708;2022-11-02T15:00:57;15.40;98.80
11666;DHT22;5889;51.350;6.708;2022-11-02T15:03:31;15.30;98.60
11666;DHT22;5889;51.350;6.708;2022-11-02T15:06:01;15.30;98.80
11666;DHT22;5889;51.350;6.708;2022-11-02T15:08:30;15.20;99.00
11666;DHT22;5889;51.350;6.708;2022-11-02T15:17:52;15.00;99.20
11666;DHT22;5889;51.350;6.708;2022-11-02T15:20:24;14.90;99.40
11666;DHT22;5889;51.350;6.708;2022-11-02T15:22:55;14.80;99.40
11666;DHT22;5889;51.350;6.708;2022-11-02T15:25:26;14.80;99.60
11666;DHT22;5889;51.350;6.708;2022-11-02T15:28:02;14.70;99.60
11666;DHT22;5889;51.350;6.708;2022-11-02T15:30:31;14.70;99.70
11666;DHT22;5889;51.350;6.708;2022-11-02T15:33:01;14.60;99.90
11666;DHT22;5889;51.350;6.708;2022-11-02T15:35:32;14.50;99.90
11666;DHT22;5889;51.350;6.708;2022-11-02T15:38:03;14.50;99.90
11666;DHT22;5889;51.350;6.708;2022-11-02T15:40:34;14.40;99.90
11666;DHT22;5889;51.350;6.708;2022-11-02T15:43:22;14.30;99.90
11666;DHT22;5889;51.350;6.708;2022-11-02T15:45:55;14.30;99.90
11666;DHT22;5889;51.350;6.708;2022-11-02T15:48:35;14.20;99.90
11666;DHT22;5889;51.350;6.708;2022-11-02T15:51:11;14.10;99.90
11666;DHT22;5889;51.350;6.708;2022-11-02T15:53:50;14.10;99.90
11666;DHT22;5889;51.350;6.708;2022-11-02T15:56:32;14.00;99.90
11666;DHT22;5889;51.350;6.708;2022-11-02T16:02:20;13.90;99.90
11666;DHT22;5889;51.350;6.708;2022-11-02T16:04:50;13.90;99.90
11666;DHT22;5889;51.350;6.708;2022-11-02T16:07:18;13.80;99.90
11666;DHT22;5889;51.350;6.708;2022-11-02T16:09:46;13.70;99.90
11666;DHT22;5889;51.350;6.708;2022-11-02T16:12:14;13.60;99.90
11666;DHT22;5889;51.350;6.708;2022-11-02T16:14:50;13.60;99.90
11666;DHT22;5889;51.350;6.708;2022-11-02T16:17:19;13.60;99.90
11666;DHT22;5889;51.350;6.708;2022-11-02T16:19:46;13.50;99.90
11666;DHT22;5889;51.350;6.708;2022-11-02T16:22:21;13.40;99.90
11666;DHT22;5889;51.350;6.708;2022-11-02T16:24:50;13.50;99.90
11666;DHT22;5889;51.350;6.708;2022-11-02T16:27:18;13.40;99.90
11666;DHT22;5889;51.350;6.708;2022-11-02T16:29:47;13.40;99.90
11666;DHT22;5889;51.350;6.708;2022-11-02T16:32:15;13.30;99.90
11666;DHT22;5889;51.350;6.708;2022-11-02T16:34:42;13.30;99.90
11666;DHT22;5889;51.350;6.708;2022-11-02T16:37:11;13.30;99.90